Douds, Iowa
Current Conditions -  °F | °C
As of 7:15 AM on Friday 24 Oct 2014 (Local Time) from KFFL Reporting Station
Overcast Overcast  
Wind Chill: 52°   Ceiling: 200
Heat Index: 52°   Visibility: NA
Dew Point: 52°   Wind: 6mph
Humidity: 100%   Direction: 190°S
Pressure: 30.04"   Gusts: NA
Location:  40.84°N, 92.09°W
Report Text: KFFL 241215Z AUTO 19005KT OVC002 11/11 A3004 RMK AO2
Loading
Personal Weather Stations






























Interactive Weather Map
Tropical Storm Tracking
New forecast layout! Learn more

10-Day Weather Forecast

Advertisements
Track Severe Weather on mobile